sensor_id;sensor_type;location;lat;lon;timestamp;P1;durP1;ratioP1;P2;durP2;ratioP2
40072;SDS011;25774;52.256;9.356;2024-03-02T00:01:21;16.50;;;9.67;;
40072;SDS011;25774;52.256;9.356;2024-03-02T00:03:47;17.30;;;10.02;;
40072;SDS011;25774;52.256;9.356;2024-03-02T00:06:12;15.97;;;9.73;;
40072;SDS011;25774;52.256;9.356;2024-03-02T00:08:38;15.80;;;9.77;;
40072;SDS011;25774;52.256;9.356;2024-03-02T00:11:04;15.63;;;9.40;;
40072;SDS011;25774;52.256;9.356;2024-03-02T00:13:29;13.13;;;8.82;;
40072;SDS011;25774;52.256;9.356;2024-03-02T00:15:58;13.88;;;9.05;;
40072;SDS011;25774;52.256;9.356;2024-03-02T00:18:30;15.03;;;8.70;;
40072;SDS011;25774;52.256;9.356;2024-03-02T00:20:55;13.13;;;8.68;;
40072;SDS011;25774;52.256;9.356;2024-03-02T00:23:22;17.23;;;9.23;;
40072;SDS011;25774;52.256;9.356;2024-03-02T00:25:48;15.23;;;8.48;;
40072;SDS011;25774;52.256;9.356;2024-03-02T00:28:29;14.18;;;8.85;;
40072;SDS011;25774;52.256;9.356;2024-03-02T00:31:04;12.75;;;8.40;;
40072;SDS011;25774;52.256;9.356;2024-03-02T00:33:47;13.77;;;8.18;;
40072;SDS011;25774;52.256;9.356;2024-03-02T00:36:17;15.25;;;8.85;;
40072;SDS011;25774;52.256;9.356;2024-03-02T00:38:47;13.10;;;8.55;;
40072;SDS011;25774;52.256;9.356;2024-03-02T00:41:20;13.82;;;8.52;;
40072;SDS011;25774;52.256;9.356;2024-03-02T00:43:47;15.88;;;8.73;;
40072;SDS011;25774;52.256;9.356;2024-03-02T00:46:17;15.10;;;9.23;;
40072;SDS011;25774;52.256;9.356;2024-03-02T00:48:48;12.98;;;8.15;;
40072;SDS011;25774;52.256;9.356;2024-03-02T00:51:13;15.88;;;8.70;;
40072;SDS011;25774;52.256;9.356;2024-03-02T00:53:39;12.43;;;8.50;;
40072;SDS011;25774;52.256;9.356;2024-03-02T00:56:04;13.43;;;8.60;;
40072;SDS011;25774;52.256;9.356;2024-03-02T00:58:34;15.77;;;9.30;;
40072;SDS011;25774;52.256;9.356;2024-03-02T01:00:59;15.40;;;8.87;;
40072;SDS011;25774;52.256;9.356;2024-03-02T01:03:24;14.13;;;8.97;;
40072;SDS011;25774;52.256;9.356;2024-03-02T01:05:49;14.87;;;8.87;;
40072;SDS011;25774;52.256;9.356;2024-03-02T01:08:15;14.10;;;8.47;;
40072;SDS011;25774;52.256;9.356;2024-03-02T01:10:41;15.20;;;8.93;;
40072;SDS011;25774;52.256;9.356;2024-03-02T01:13:06;13.35;;;8.63;;
40072;SDS011;25774;52.256;9.356;2024-03-02T01:15:33;16.97;;;9.13;;
40072;SDS011;25774;52.256;9.356;2024-03-02T01:17:58;12.07;;;8.52;;
40072;SDS011;25774;52.256;9.356;2024-03-02T01:20:23;12.47;;;8.00;;
40072;SDS011;25774;52.256;9.356;2024-03-02T01:22:50;13.55;;;8.55;;
40072;SDS011;25774;52.256;9.356;2024-03-02T01:25:15;12.53;;;8.23;;
40072;SDS011;25774;52.256;9.356;2024-03-02T01:27:40;15.50;;;8.57;;
40072;SDS011;25774;52.256;9.356;2024-03-02T01:30:06;14.43;;;8.43;;
40072;SDS011;25774;52.256;9.356;2024-03-02T01:32:33;13.82;;;8.80;;
40072;SDS011;25774;52.256;9.356;2024-03-02T01:34:58;18.00;;;9.15;;
40072;SDS011;25774;52.256;9.356;2024-03-02T01:37:23;19.77;;;9.47;;
40072;SDS011;25774;52.256;9.356;2024-03-02T01:39:48;15.43;;;8.97;;
40072;SDS011;25774;52.256;9.356;2024-03-02T01:42:14;15.57;;;9.37;;
40072;SDS011;25774;52.256;9.356;2024-03-02T01:44:39;16.27;;;9.60;;
40072;SDS011;25774;52.256;9.356;2024-03-02T01:47:06;13.38;;;8.80;;
40072;SDS011;25774;52.256;9.356;2024-03-02T01:49:31;15.00;;;9.05;;
40072;SDS011;25774;52.256;9.356;2024-03-02T01:52:02;14.23;;;8.95;;
40072;SDS011;25774;52.256;9.356;2024-03-02T01:54:29;16.33;;;9.68;;
40072;SDS011;25774;52.256;9.356;2024-03-02T01:56:54;16.92;;;9.90;;
40072;SDS011;25774;52.256;9.356;2024-03-02T01:59:22;18.30;;;9.37;;
40072;SDS011;25774;52.256;9.356;2024-03-02T02:01:47;14.65;;;9.25;;
40072;SDS011;25774;52.256;9.356;2024-03-02T02:04:12;14.67;;;8.37;;
40072;SDS011;25774;52.256;9.356;2024-03-02T02:06:38;14.90;;;8.63;;
40072;SDS011;25774;52.256;9.356;2024-03-02T02:09:03;18.67;;;9.80;;
40072;SDS011;25774;52.256;9.356;2024-03-02T02:11:29;14.13;;;8.90;;
40072;SDS011;25774;52.256;9.356;2024-03-02T02:13:54;13.90;;;8.40;;
40072;SDS011;25774;52.256;9.356;2024-03-02T02:18:45;12.25;;;8.15;;
40072;SDS011;25774;52.256;9.356;2024-03-02T02:21:11;16.23;;;9.40;;
40072;SDS011;25774;52.256;9.356;2024-03-02T02:23:36;12.13;;;8.37;;
40072;SDS011;25774;52.256;9.356;2024-03-02T02:26:01;16.07;;;9.13;;
40072;SDS011;25774;52.256;9.356;2024-03-02T02:28:27;17.17;;;10.40;;
40072;SDS011;25774;52.256;9.356;2024-03-02T02:30:54;17.53;;;9.73;;
40072;SDS011;25774;52.256;9.356;2024-03-02T02:33:21;14.80;;;8.98;;
40072;SDS011;25774;52.256;9.356;2024-03-02T02:35:46;17.90;;;10.23;;
40072;SDS011;25774;52.256;9.356;2024-03-02T02:38:11;18.37;;;9.73;;
40072;SDS011;25774;52.256;9.356;2024-03-02T02:40:36;17.67;;;10.73;;
40072;SDS011;25774;52.256;9.356;2024-03-02T02:43:02;17.50;;;9.93;;
40072;SDS011;25774;52.256;9.356;2024-03-02T02:45:33;15.47;;;9.80;;
40072;SDS011;25774;52.256;9.356;2024-03-02T02:47:58;18.25;;;10.73;;
40072;SDS011;25774;52.256;9.356;2024-03-02T02:50:24;15.27;;;9.02;;
40072;SDS011;25774;52.256;9.356;2024-03-02T02:52:49;17.13;;;9.73;;
40072;SDS011;25774;52.256;9.356;2024-03-02T02:55:15;14.73;;;9.40;;
40072;SDS011;25774;52.256;9.356;2024-03-02T02:57:41;19.43;;;9.73;;
40072;SDS011;25774;52.256;9.356;2024-03-02T03:00:07;17.73;;;9.60;;
40072;SDS011;25774;52.256;9.356;2024-03-02T03:02:39;16.45;;;9.60;;
40072;SDS011;25774;52.256;9.356;2024-03-02T03:07:31;19.65;;;10.57;;
40072;SDS011;25774;52.256;9.356;2024-03-02T03:09:57;21.03;;;11.30;;
40072;SDS011;25774;52.256;9.356;2024-03-02T03:12:22;17.85;;;10.90;;
40072;SDS011;25774;52.256;9.356;2024-03-02T03:14:49;18.57;;;10.43;;
40072;SDS011;25774;52.256;9.356;2024-03-02T03:17:14;19.85;;;11.43;;
40072;SDS011;25774;52.256;9.356;2024-03-02T03:19:39;17.13;;;10.87;;
40072;SDS011;25774;52.256;9.356;2024-03-02T03:22:05;19.67;;;11.03;;
40072;SDS011;25774;52.256;9.356;2024-03-02T03:24:30;21.53;;;11.73;;
40072;SDS011;25774;52.256;9.356;2024-03-02T03:26:55;19.57;;;11.60;;
40072;SDS011;25774;52.256;9.356;2024-03-02T03:29:20;19.30;;;11.07;;
40072;SDS011;25774;52.256;9.356;2024-03-02T03:31:45;18.27;;;10.43;;
40072;SDS011;25774;52.256;9.356;2024-03-02T03:34:11;18.20;;;10.77;;
40072;SDS011;25774;52.256;9.356;2024-03-02T03:36:42;17.60;;;9.93;;
40072;SDS011;25774;52.256;9.356;2024-03-02T03:41:32;25.70;;;12.65;;
40072;SDS011;25774;52.256;9.356;2024-03-02T03:43:58;18.73;;;11.23;;
40072;SDS011;25774;52.256;9.356;2024-03-02T03:46:24;21.55;;;11.85;;
40072;SDS011;25774;52.256;9.356;2024-03-02T03:48:49;18.90;;;11.57;;
40072;SDS011;25774;52.256;9.356;2024-03-02T03:51:14;19.60;;;10.47;;
40072;SDS011;25774;52.256;9.356;2024-03-02T03:53:41;16.40;;;10.03;;
40072;SDS011;25774;52.256;9.356;2024-03-02T03:56:06;20.63;;;11.85;;
40072;SDS011;25774;52.256;9.356;2024-03-02T03:58:32;22.60;;;12.37;;
40072;SDS011;25774;52.256;9.356;2024-03-02T04:00:57;20.17;;;11.77;;
40072;SDS011;25774;52.256;9.356;2024-03-02T04:03:22;20.53;;;12.17;;
40072;SDS011;25774;52.256;9.356;2024-03-02T04:05:47;20.07;;;10.40;;
40072;SDS011;25774;52.256;9.356;2024-03-02T04:08:12;21.20;;;11.53;;
40072;SDS011;25774;52.256;9.356;2024-03-02T04:10:38;18.90;;;11.47;;
40072;SDS011;25774;52.256;9.356;2024-03-02T04:13:03;18.83;;;11.33;;
40072;SDS011;25774;52.256;9.356;2024-03-02T04:15:28;20.27;;;10.77;;
40072;SDS011;25774;52.256;9.356;2024-03-02T04:17:53;22.80;;;11.70;;
40072;SDS011;25774;52.256;9.356;2024-03-02T04:20:21;19.50;;;11.00;;
40072;SDS011;25774;52.256;9.356;2024-03-02T04:22:46;17.95;;;11.18;;
40072;SDS011;25774;52.256;9.356;2024-03-02T04:25:11;20.20;;;10.97;;
40072;SDS011;25774;52.256;9.356;2024-03-02T04:27:37;20.03;;;11.50;;
40072;SDS011;25774;52.256;9.356;2024-03-02T04:30:03;21.08;;;10.85;;
40072;SDS011;25774;52.256;9.356;2024-03-02T04:32:30;21.95;;;12.45;;
40072;SDS011;25774;52.256;9.356;2024-03-02T04:34:55;20.90;;;11.13;;
40072;SDS011;25774;52.256;9.356;2024-03-02T04:37:20;20.17;;;11.13;;
40072;SDS011;25774;52.256;9.356;2024-03-02T04:39:46;21.13;;;11.70;;
40072;SDS011;25774;52.256;9.356;2024-03-02T04:42:11;20.23;;;11.07;;
40072;SDS011;25774;52.256;9.356;2024-03-02T04:44:36;22.27;;;12.00;;
40072;SDS011;25774;52.256;9.356;2024-03-02T04:47:03;21.77;;;11.80;;
40072;SDS011;25774;52.256;9.356;2024-03-02T04:49:28;19.57;;;11.77;;
40072;SDS011;25774;52.256;9.356;2024-03-02T04:51:53;19.70;;;10.90;;
40072;SDS011;25774;52.256;9.356;2024-03-02T04:54:19;22.60;;;12.40;;
40072;SDS011;25774;52.256;9.356;2024-03-02T04:56:44;24.57;;;11.77;;
40072;SDS011;25774;52.256;9.356;2024-03-02T04:59:11;19.83;;;11.67;;
40072;SDS011;25774;52.256;9.356;2024-03-02T05:01:36;21.30;;;11.82;;
40072;SDS011;25774;52.256;9.356;2024-03-02T05:04:01;18.97;;;11.67;;
40072;SDS011;25774;52.256;9.356;2024-03-02T05:06:26;18.23;;;10.67;;
40072;SDS011;25774;52.256;9.356;2024-03-02T05:08:52;21.47;;;12.30;;
40072;SDS011;25774;52.256;9.356;2024-03-02T05:11:18;22.87;;;13.50;;
40072;SDS011;25774;52.256;9.356;2024-03-02T05:14:02;20.13;;;11.98;;
40072;SDS011;25774;52.256;9.356;2024-03-02T05:16:27;20.17;;;11.67;;
40072;SDS011;25774;52.256;9.356;2024-03-02T05:18:53;23.20;;;11.57;;
40072;SDS011;25774;52.256;9.356;2024-03-02T05:21:18;25.13;;;12.53;;
40072;SDS011;25774;52.256;9.356;2024-03-02T05:23:43;19.60;;;11.93;;
40072;SDS011;25774;52.256;9.356;2024-03-02T05:26:09;24.05;;;13.60;;
40072;SDS011;25774;52.256;9.356;2024-03-02T05:28:36;23.10;;;12.88;;
40072;SDS011;25774;52.256;9.356;2024-03-02T05:31:01;24.87;;;13.30;;
40072;SDS011;25774;52.256;9.356;2024-03-02T05:33:27;27.03;;;13.67;;
40072;SDS011;25774;52.256;9.356;2024-03-02T05:35:52;25.40;;;13.60;;
40072;SDS011;25774;52.256;9.356;2024-03-02T05:38:17;30.57;;;13.27;;
40072;SDS011;25774;52.256;9.356;2024-03-02T05:40:42;22.70;;;13.33;;
40072;SDS011;25774;52.256;9.356;2024-03-02T05:43:07;31.10;;;14.07;;
40072;SDS011;25774;52.256;9.356;2024-03-02T05:45:33;25.23;;;14.53;;
40072;SDS011;25774;52.256;9.356;2024-03-02T05:47:58;23.17;;;14.30;;
40072;SDS011;25774;52.256;9.356;2024-03-02T05:50:23;26.07;;;14.87;;
40072;SDS011;25774;52.256;9.356;2024-03-02T05:52:48;31.87;;;16.13;;
40072;SDS011;25774;52.256;9.356;2024-03-02T05:55:13;27.80;;;14.50;;
40072;SDS011;25774;52.256;9.356;2024-03-02T05:57:39;27.27;;;15.20;;
40072;SDS011;25774;52.256;9.356;2024-03-02T06:00:10;29.65;;;16.58;;
40072;SDS011;25774;52.256;9.356;2024-03-02T06:02:40;33.90;;;17.20;;
40072;SDS011;25774;52.256;9.356;2024-03-02T06:05:06;28.33;;;15.07;;
40072;SDS011;25774;52.256;9.356;2024-03-02T06:07:32;25.50;;;14.82;;
40072;SDS011;25774;52.256;9.356;2024-03-02T06:09:57;30.80;;;15.20;;
40072;SDS011;25774;52.256;9.356;2024-03-02T06:12:23;35.38;;;17.25;;
40072;SDS011;25774;52.256;9.356;2024-03-02T06:14:49;34.17;;;17.53;;
40072;SDS011;25774;52.256;9.356;2024-03-02T06:17:16;27.23;;;16.13;;
40072;SDS011;25774;52.256;9.356;2024-03-02T06:19:41;28.10;;;17.17;;
40072;SDS011;25774;52.256;9.356;2024-03-02T06:22:06;33.63;;;18.53;;
40072;SDS011;25774;52.256;9.356;2024-03-02T06:24:36;33.47;;;18.35;;
40072;SDS011;25774;52.256;9.356;2024-03-02T06:27:01;31.25;;;17.77;;
40072;SDS011;25774;52.256;9.356;2024-03-02T06:29:26;30.40;;;16.90;;
40072;SDS011;25774;52.256;9.356;2024-03-02T06:31:52;32.80;;;17.90;;
40072;SDS011;25774;52.256;9.356;2024-03-02T06:34:18;34.40;;;18.35;;
40072;SDS011;25774;52.256;9.356;2024-03-02T06:36:43;36.77;;;18.50;;
40072;SDS011;25774;52.256;9.356;2024-03-02T06:39:08;34.77;;;18.00;;
40072;SDS011;25774;52.256;9.356;2024-03-02T06:41:34;39.17;;;17.87;;
40072;SDS011;25774;52.256;9.356;2024-03-02T06:43:59;36.60;;;18.70;;
40072;SDS011;25774;52.256;9.356;2024-03-02T06:46:27;34.97;;;18.42;;
40072;SDS011;25774;52.256;9.356;2024-03-02T06:48:54;37.38;;;19.00;;
40072;SDS011;25774;52.256;9.356;2024-03-02T06:51:19;35.05;;;17.80;;
40072;SDS011;25774;52.256;9.356;2024-03-02T06:53:44;33.20;;;18.43;;
40072;SDS011;25774;52.256;9.356;2024-03-02T06:56:11;35.67;;;18.80;;
40072;SDS011;25774;52.256;9.356;2024-03-02T06:58:36;36.30;;;18.87;;
40072;SDS011;25774;52.256;9.356;2024-03-02T07:01:01;34.43;;;18.50;;
40072;SDS011;25774;52.256;9.356;2024-03-02T07:03:26;31.40;;;17.47;;
40072;SDS011;25774;52.256;9.356;2024-03-02T07:05:52;33.67;;;18.53;;
40072;SDS011;25774;52.256;9.356;2024-03-02T07:08:17;33.10;;;18.03;;
40072;SDS011;25774;52.256;9.356;2024-03-02T07:10:42;35.43;;;20.00;;
40072;SDS011;25774;52.256;9.356;2024-03-02T07:13:07;36.77;;;19.17;;
40072;SDS011;25774;52.256;9.356;2024-03-02T07:15:33;34.80;;;18.77;;
40072;SDS011;25774;52.256;9.356;2024-03-02T07:18:24;37.13;;;18.35;;
40072;SDS011;25774;52.256;9.356;2024-03-02T07:20:49;37.00;;;18.60;;
40072;SDS011;25774;52.256;9.356;2024-03-02T07:23:15;37.60;;;19.63;;
40072;SDS011;25774;52.256;9.356;2024-03-02T07:25:41;41.33;;;19.38;;
40072;SDS011;25774;52.256;9.356;2024-03-02T07:28:06;37.17;;;20.67;;
40072;SDS011;25774;52.256;9.356;2024-03-02T07:30:32;38.97;;;19.65;;
40072;SDS011;25774;52.256;9.356;2024-03-02T07:32:57;35.47;;;18.30;;
40072;SDS011;25774;52.256;9.356;2024-03-02T07:35:23;35.50;;;18.55;;
40072;SDS011;25774;52.256;9.356;2024-03-02T07:37:52;35.08;;;19.48;;
40072;SDS011;25774;52.256;9.356;2024-03-02T07:40:18;33.65;;;18.88;;
40072;SDS011;25774;52.256;9.356;2024-03-02T07:42:43;33.20;;;18.17;;
40072;SDS011;25774;52.256;9.356;2024-03-02T07:45:08;33.07;;;18.30;;
40072;SDS011;25774;52.256;9.356;2024-03-02T07:47:34;31.67;;;16.87;;
40072;SDS011;25774;52.256;9.356;2024-03-02T07:49:59;33.05;;;16.70;;
40072;SDS011;25774;52.256;9.356;2024-03-02T07:52:24;28.77;;;16.63;;
40072;SDS011;25774;52.256;9.356;2024-03-02T07:54:51;29.33;;;15.83;;
40072;SDS011;25774;52.256;9.356;2024-03-02T07:57:17;29.65;;;17.48;;
40072;SDS011;25774;52.256;9.356;2024-03-02T07:59:43;28.15;;;16.00;;
40072;SDS011;25774;52.256;9.356;2024-03-02T08:02:08;30.23;;;15.98;;
40072;SDS011;25774;52.256;9.356;2024-03-02T08:04:35;28.57;;;15.37;;
40072;SDS011;25774;52.256;9.356;2024-03-02T08:07:01;28.38;;;16.88;;
40072;SDS011;25774;52.256;9.356;2024-03-02T08:09:27;30.20;;;15.87;;
40072;SDS011;25774;52.256;9.356;2024-03-02T08:11:52;32.80;;;15.80;;
40072;SDS011;25774;52.256;9.356;2024-03-02T08:14:17;25.93;;;15.10;;
40072;SDS011;25774;52.256;9.356;2024-03-02T08:16:42;26.63;;;14.70;;
40072;SDS011;25774;52.256;9.356;2024-03-02T08:19:19;32.58;;;16.30;;
40072;SDS011;25774;52.256;9.356;2024-03-02T08:21:44;29.50;;;14.97;;
40072;SDS011;25774;52.256;9.356;2024-03-02T08:24:10;24.77;;;14.57;;
40072;SDS011;25774;52.256;9.356;2024-03-02T08:26:35;28.50;;;15.40;;
40072;SDS011;25774;52.256;9.356;2024-03-02T08:29:00;25.20;;;14.93;;
40072;SDS011;25774;52.256;9.356;2024-03-02T08:31:27;27.33;;;15.15;;
40072;SDS011;25774;52.256;9.356;2024-03-02T08:33:52;25.83;;;15.50;;
40072;SDS011;25774;52.256;9.356;2024-03-02T08:36:17;25.93;;;16.03;;
40072;SDS011;25774;52.256;9.356;2024-03-02T08:38:43;30.90;;;15.93;;
40072;SDS011;25774;52.256;9.356;2024-03-02T08:43:34;26.08;;;13.98;;
40072;SDS011;25774;52.256;9.356;2024-03-02T08:45:59;29.10;;;14.70;;
40072;SDS011;25774;52.256;9.356;2024-03-02T08:48:24;27.00;;;14.57;;
40072;SDS011;25774;52.256;9.356;2024-03-02T08:50:50;26.17;;;15.27;;
40072;SDS011;25774;52.256;9.356;2024-03-02T08:53:15;28.40;;;13.80;;
40072;SDS011;25774;52.256;9.356;2024-03-02T08:55:45;23.85;;;13.35;;
40072;SDS011;25774;52.256;9.356;2024-03-02T08:58:10;25.30;;;14.57;;
40072;SDS011;25774;52.256;9.356;2024-03-02T09:00:35;23.97;;;12.83;;
40072;SDS011;25774;52.256;9.356;2024-03-02T09:03:01;24.17;;;13.80;;
40072;SDS011;25774;52.256;9.356;2024-03-02T09:05:26;20.45;;;12.38;;
40072;SDS011;25774;52.256;9.356;2024-03-02T09:07:52;22.10;;;13.10;;
40072;SDS011;25774;52.256;9.356;2024-03-02T09:10:17;23.30;;;12.53;;
40072;SDS011;25774;52.256;9.356;2024-03-02T09:12:42;20.30;;;11.43;;
40072;SDS011;25774;52.256;9.356;2024-03-02T09:15:09;18.63;;;10.83;;
40072;SDS011;25774;52.256;9.356;2024-03-02T09:17:34;19.02;;;11.57;;
40072;SDS011;25774;52.256;9.356;2024-03-02T09:19:59;18.47;;;10.80;;
40072;SDS011;25774;52.256;9.356;2024-03-02T09:22:27;19.73;;;11.50;;
40072;SDS011;25774;52.256;9.356;2024-03-02T09:24:52;18.58;;;11.23;;
40072;SDS011;25774;52.256;9.356;2024-03-02T09:27:17;25.13;;;12.07;;
40072;SDS011;25774;52.256;9.356;2024-03-02T09:29:43;18.13;;;10.50;;
40072;SDS011;25774;52.256;9.356;2024-03-02T09:32:12;21.47;;;11.50;;
40072;SDS011;25774;52.256;9.356;2024-03-02T09:34:37;19.95;;;10.48;;
40072;SDS011;25774;52.256;9.356;2024-03-02T09:37:02;17.87;;;9.90;;
40072;SDS011;25774;52.256;9.356;2024-03-02T09:39:29;17.38;;;10.20;;
40072;SDS011;25774;52.256;9.356;2024-03-02T09:41:54;19.90;;;9.97;;
40072;SDS011;25774;52.256;9.356;2024-03-02T09:44:20;17.10;;;9.57;;
40072;SDS011;25774;52.256;9.356;2024-03-02T09:46:48;19.00;;;11.23;;
40072;SDS011;25774;52.256;9.356;2024-03-02T09:49:13;15.88;;;10.30;;
40072;SDS011;25774;52.256;9.356;2024-03-02T09:51:39;15.33;;;9.37;;
40072;SDS011;25774;52.256;9.356;2024-03-02T09:54:05;15.13;;;9.75;;
40072;SDS011;25774;52.256;9.356;2024-03-02T09:56:33;15.23;;;8.60;;
40072;SDS011;25774;52.256;9.356;2024-03-02T09:58:59;16.60;;;9.23;;
40072;SDS011;25774;52.256;9.356;2024-03-02T10:01:25;15.60;;;8.90;;
40072;SDS011;25774;52.256;9.356;2024-03-02T10:08:45;13.55;;;8.50;;
40072;SDS011;25774;52.256;9.356;2024-03-02T10:11:11;17.50;;;8.67;;
40072;SDS011;25774;52.256;9.356;2024-03-02T10:13:36;14.45;;;8.02;;
40072;SDS011;25774;52.256;9.356;2024-03-02T10:16:11;12.50;;;7.70;;
40072;SDS011;25774;52.256;9.356;2024-03-02T10:18:36;12.05;;;7.70;;
40072;SDS011;25774;52.256;9.356;2024-03-02T10:21:14;16.92;;;8.65;;
40072;SDS011;25774;52.256;9.356;2024-03-02T10:23:40;14.85;;;8.02;;
40072;SDS011;25774;52.256;9.356;2024-03-02T10:26:17;17.47;;;8.10;;
40072;SDS011;25774;52.256;9.356;2024-03-02T10:28:46;15.93;;;8.35;;
40072;SDS011;25774;52.256;9.356;2024-03-02T10:31:12;13.55;;;7.70;;
40072;SDS011;25774;52.256;9.356;2024-03-02T10:37:03;12.00;;;6.93;;
40072;SDS011;25774;52.256;9.356;2024-03-02T10:39:39;12.15;;;7.38;;
40072;SDS011;25774;52.256;9.356;2024-03-02T10:42:05;12.05;;;6.95;;
40072;SDS011;25774;52.256;9.356;2024-03-02T10:44:31;14.38;;;6.95;;
40072;SDS011;25774;52.256;9.356;2024-03-02T10:47:01;11.75;;;6.65;;
40072;SDS011;25774;52.256;9.356;2024-03-02T10:52:32;12.32;;;6.55;;
40072;SDS011;25774;52.256;9.356;2024-03-02T10:54:57;13.53;;;7.57;;
40072;SDS011;25774;52.256;9.356;2024-03-02T10:57:22;10.17;;;6.13;;
40072;SDS011;25774;52.256;9.356;2024-03-02T10:59:53;11.85;;;6.13;;
40072;SDS011;25774;52.256;9.356;2024-03-02T11:02:22;11.60;;;6.47;;
40072;SDS011;25774;52.256;9.356;2024-03-02T11:04:49;11.88;;;6.43;;
40072;SDS011;25774;52.256;9.356;2024-03-02T11:07:15;11.85;;;6.82;;
40072;SDS011;25774;52.256;9.356;2024-03-02T11:09:45;10.32;;;5.63;;
40072;SDS011;25774;52.256;9.356;2024-03-02T11:12:28;9.95;;;5.82;;
40072;SDS011;25774;52.256;9.356;2024-03-02T11:14:53;8.70;;;5.47;;
40072;SDS011;25774;52.256;9.356;2024-03-02T11:17:20;9.77;;;5.40;;
40072;SDS011;25774;52.256;9.356;2024-03-02T11:19:46;9.95;;;5.47;;
40072;SDS011;25774;52.256;9.356;2024-03-02T11:22:12;9.32;;;4.88;;
40072;SDS011;25774;52.256;9.356;2024-03-02T11:24:38;8.98;;;5.22;;
40072;SDS011;25774;52.256;9.356;2024-03-02T11:27:03;7.70;;;4.53;;
40072;SDS011;25774;52.256;9.356;2024-03-02T11:29:48;10.77;;;4.93;;
40072;SDS011;25774;52.256;9.356;2024-03-02T11:32:32;9.13;;;4.80;;
40072;SDS011;25774;52.256;9.356;2024-03-02T11:35:10;9.03;;;4.67;;
40072;SDS011;25774;52.256;9.356;2024-03-02T11:37:38;8.50;;;4.80;;
40072;SDS011;25774;52.256;9.356;2024-03-02T11:40:10;8.90;;;4.82;;
40072;SDS011;25774;52.256;9.356;2024-03-02T11:42:39;7.60;;;4.03;;
40072;SDS011;25774;52.256;9.356;2024-03-02T11:45:05;5.80;;;3.85;;
40072;SDS011;25774;52.256;9.356;2024-03-02T11:47:33;7.43;;;4.28;;
40072;SDS011;25774;52.256;9.356;2024-03-02T11:49:59;6.87;;;3.90;;
40072;SDS011;25774;52.256;9.356;2024-03-02T11:55:31;6.40;;;3.85;;
40072;SDS011;25774;52.256;9.356;2024-03-02T11:57:59;8.23;;;4.32;;
40072;SDS011;25774;52.256;9.356;2024-03-02T12:00:26;7.32;;;3.58;;
40072;SDS011;25774;52.256;9.356;2024-03-02T12:14:57;5.47;;;3.25;;
40072;SDS011;25774;52.256;9.356;2024-03-02T12:17:24;7.10;;;3.50;;
40072;SDS011;25774;52.256;9.356;2024-03-02T12:19:49;6.77;;;3.60;;
40072;SDS011;25774;52.256;9.356;2024-03-02T12:22:14;6.40;;;3.67;;
40072;SDS011;25774;52.256;9.356;2024-03-02T12:27:06;6.63;;;3.83;;
40072;SDS011;25774;52.256;9.356;2024-03-02T12:29:32;7.18;;;3.53;;
40072;SDS011;25774;52.256;9.356;2024-03-02T12:31:57;5.07;;;2.83;;
40072;SDS011;25774;52.256;9.356;2024-03-02T12:34:23;5.47;;;3.07;;
40072;SDS011;25774;52.256;9.356;2024-03-02T12:36:49;5.45;;;3.38;;
40072;SDS011;25774;52.256;9.356;2024-03-02T12:39:18;6.10;;;3.47;;
40072;SDS011;25774;52.256;9.356;2024-03-02T12:41:43;5.15;;;2.78;;
40072;SDS011;25774;52.256;9.356;2024-03-02T12:44:08;5.27;;;2.93;;
40072;SDS011;25774;52.256;9.356;2024-03-02T12:46:35;5.50;;;2.63;;
40072;SDS011;25774;52.256;9.356;2024-03-02T12:49:11;6.32;;;2.70;;
40072;SDS011;25774;52.256;9.356;2024-03-02T12:51:37;5.40;;;3.35;;
40072;SDS011;25774;52.256;9.356;2024-03-02T12:54:02;4.35;;;2.50;;
40072;SDS011;25774;52.256;9.356;2024-03-02T12:56:29;6.00;;;2.45;;
40072;SDS011;25774;52.256;9.356;2024-03-02T13:01:22;4.28;;;2.45;;
40072;SDS011;25774;52.256;9.356;2024-03-02T13:03:55;5.40;;;2.20;;
40072;SDS011;25774;52.256;9.356;2024-03-02T13:06:20;4.25;;;2.58;;
40072;SDS011;25774;52.256;9.356;2024-03-02T13:08:46;5.57;;;2.23;;
40072;SDS011;25774;52.256;9.356;2024-03-02T13:11:22;3.92;;;2.33;;
40072;SDS011;25774;52.256;9.356;2024-03-02T13:16:54;3.70;;;2.40;;
40072;SDS011;25774;52.256;9.356;2024-03-02T13:19:22;4.30;;;2.10;;
40072;SDS011;25774;52.256;9.356;2024-03-02T13:21:48;5.30;;;2.87;;
40072;SDS011;25774;52.256;9.356;2024-03-02T13:24:15;3.35;;;1.98;;
40072;SDS011;25774;52.256;9.356;2024-03-02T13:26:40;4.37;;;2.10;;
40072;SDS011;25774;52.256;9.356;2024-03-02T13:29:08;10.67;;;2.47;;
40072;SDS011;25774;52.256;9.356;2024-03-02T13:31:33;7.15;;;3.88;;
40072;SDS011;25774;52.256;9.356;2024-03-02T13:33:58;9.40;;;3.70;;
40072;SDS011;25774;52.256;9.356;2024-03-02T13:36:23;8.13;;;4.33;;
40072;SDS011;25774;52.256;9.356;2024-03-02T13:38:49;7.07;;;4.13;;
40072;SDS011;25774;52.256;9.356;2024-03-02T13:41:15;7.93;;;4.70;;
40072;SDS011;25774;52.256;9.356;2024-03-02T13:46:05;9.03;;;4.10;;
40072;SDS011;25774;52.256;9.356;2024-03-02T13:48:31;8.93;;;3.72;;
40072;SDS011;25774;52.256;9.356;2024-03-02T13:50:57;7.57;;;4.18;;
40072;SDS011;25774;52.256;9.356;2024-03-02T13:53:22;5.10;;;3.13;;
40072;SDS011;25774;52.256;9.356;2024-03-02T13:55:48;5.00;;;2.20;;
40072;SDS011;25774;52.256;9.356;2024-03-02T13:58:13;4.83;;;2.23;;
40072;SDS011;25774;52.256;9.356;2024-03-02T14:00:38;5.30;;;2.77;;
40072;SDS011;25774;52.256;9.356;2024-03-02T14:03:04;4.97;;;2.33;;
40072;SDS011;25774;52.256;9.356;2024-03-02T14:05:30;4.40;;;2.20;;
40072;SDS011;25774;52.256;9.356;2024-03-02T14:07:56;3.67;;;1.50;;
40072;SDS011;25774;52.256;9.356;2024-03-02T14:10:21;4.10;;;2.60;;
40072;SDS011;25774;52.256;9.356;2024-03-02T14:12:48;7.80;;;3.22;;
40072;SDS011;25774;52.256;9.356;2024-03-02T14:15:13;3.50;;;1.60;;
40072;SDS011;25774;52.256;9.356;2024-03-02T14:17:38;2.30;;;1.27;;
40072;SDS011;25774;52.256;9.356;2024-03-02T14:20:03;5.03;;;2.20;;
40072;SDS011;25774;52.256;9.356;2024-03-02T14:22:30;2.70;;;1.40;;
40072;SDS011;25774;52.256;9.356;2024-03-02T14:24:55;1.90;;;1.02;;
40072;SDS011;25774;52.256;9.356;2024-03-02T14:27:20;2.07;;;0.90;;
40072;SDS011;25774;52.256;9.356;2024-03-02T14:29:46;4.05;;;1.48;;
40072;SDS011;25774;52.256;9.356;2024-03-02T14:32:11;3.07;;;1.13;;
40072;SDS011;25774;52.256;9.356;2024-03-02T14:34:36;2.40;;;1.20;;
40072;SDS011;25774;52.256;9.356;2024-03-02T14:37:03;2.73;;;1.37;;
40072;SDS011;25774;52.256;9.356;2024-03-02T14:41:53;1.80;;;1.00;;
40072;SDS011;25774;52.256;9.356;2024-03-02T14:44:20;3.15;;;0.98;;
40072;SDS011;25774;52.256;9.356;2024-03-02T14:46:48;1.73;;;0.97;;
40072;SDS011;25774;52.256;9.356;2024-03-02T14:49:15;4.38;;;2.42;;
40072;SDS011;25774;52.256;9.356;2024-03-02T14:51:40;2.65;;;1.27;;
40072;SDS011;25774;52.256;9.356;2024-03-02T14:54:05;5.87;;;1.30;;
40072;SDS011;25774;52.256;9.356;2024-03-02T14:56:37;4.30;;;1.40;;
40072;SDS011;25774;52.256;9.356;2024-03-02T14:59:02;2.45;;;1.17;;
40072;SDS011;25774;52.256;9.356;2024-03-02T15:01:27;2.80;;;1.37;;
40072;SDS011;25774;52.256;9.356;2024-03-02T15:03:53;2.57;;;1.20;;
40072;SDS011;25774;52.256;9.356;2024-03-02T15:06:19;1.67;;;0.70;;
40072;SDS011;25774;52.256;9.356;2024-03-02T15:08:44;2.28;;;0.95;;
40072;SDS011;25774;52.256;9.356;2024-03-02T15:11:13;1.88;;;0.80;;
40072;SDS011;25774;52.256;9.356;2024-03-02T15:13:41;1.77;;;0.80;;
40072;SDS011;25774;52.256;9.356;2024-03-02T15:16:08;2.40;;;0.70;;